createdAt,value
2022-09-13T00:01:20.587Z,32.03
2022-09-13T00:03:46.964Z,32.01
2022-09-13T00:06:13.333Z,32.28
2022-09-13T00:08:39.784Z,32.47
2022-09-13T00:11:06.176Z,32.13
2022-09-13T00:13:32.518Z,32.10
2022-09-13T00:15:58.998Z,32.04
2022-09-13T00:18:25.408Z,32.02
2022-09-13T00:20:51.744Z,32.01
2022-09-13T00:23:18.177Z,32.01
2022-09-13T00:25:44.502Z,32.06
2022-09-13T00:28:10.844Z,32.06
2022-09-13T00:30:37.269Z,32.07
2022-09-13T00:33:03.599Z,32.02
2022-09-13T00:35:29.944Z,32.00
2022-09-13T00:37:56.301Z,31.98
2022-09-13T00:40:22.709Z,31.98
2022-09-13T00:42:49.080Z,31.99
2022-09-13T00:45:15.435Z,32.11
2022-09-13T00:47:41.769Z,32.61
2022-09-13T00:50:08.120Z,32.12
2022-09-13T00:52:34.493Z,32.03
2022-09-13T00:55:00.854Z,32.02
2022-09-13T00:57:27.189Z,31.99
2022-09-13T00:59:53.564Z,31.96
2022-09-13T01:02:19.942Z,31.96
2022-09-13T01:04:46.322Z,31.97
2022-09-13T01:07:12.761Z,31.95
2022-09-13T01:09:39.090Z,31.97
2022-09-13T01:12:05.421Z,31.95
2022-09-13T01:14:31.811Z,31.94
2022-09-13T01:16:58.145Z,31.93
2022-09-13T01:19:24.476Z,31.93
2022-09-13T01:21:50.898Z,31.94
2022-09-13T01:24:17.239Z,32.28
2022-09-13T01:26:43.578Z,32.42
2022-09-13T01:29:09.931Z,32.15
2022-09-13T01:31:36.426Z,32.08
2022-09-13T01:34:02.810Z,32.01
2022-09-13T01:36:29.273Z,31.97
2022-09-13T01:38:55.596Z,31.96
2022-09-13T01:41:21.934Z,31.98
2022-09-13T01:43:48.471Z,31.92
2022-09-13T01:46:14.854Z,31.93
2022-09-13T01:48:41.314Z,31.92
2022-09-13T01:51:07.678Z,31.90
2022-09-13T01:53:34.135Z,31.92
2022-09-13T01:56:00.471Z,31.91
2022-09-13T01:58:26.902Z,31.90
2022-09-13T02:00:53.299Z,31.92
2022-09-13T02:03:19.682Z,32.14
2022-09-13T02:05:46.038Z,32.42
2022-09-13T02:08:12.358Z,32.06
2022-09-13T02:10:38.697Z,32.00
2022-09-13T02:13:05.047Z,31.97
2022-09-13T02:15:31.384Z,31.94
2022-09-13T02:17:57.729Z,31.93
2022-09-13T02:20:24.108Z,31.91
2022-09-13T02:22:50.459Z,31.96
2022-09-13T02:25:16.964Z,31.97
2022-09-13T02:27:43.431Z,32.01
2022-09-13T02:30:09.794Z,31.98
2022-09-13T02:32:36.156Z,31.93
2022-09-13T02:35:02.524Z,31.91
2022-09-13T02:37:28.870Z,31.90
2022-09-13T02:39:55.280Z,31.89
2022-09-13T02:42:21.634Z,32.10
2022-09-13T02:44:47.992Z,32.42
2022-09-13T02:47:14.349Z,32.04
2022-09-13T02:49:40.718Z,31.98
2022-09-13T02:52:07.045Z,31.95
2022-09-13T02:54:33.396Z,31.89
2022-09-13T02:56:59.786Z,31.91
2022-09-13T02:59:26.137Z,31.90
2022-09-13T03:01:52.514Z,31.89
2022-09-13T03:04:18.945Z,31.88
2022-09-13T03:06:45.285Z,31.87
2022-09-13T03:09:11.636Z,31.88
2022-09-13T03:11:38.005Z,31.87
2022-09-13T03:14:04.333Z,31.87
2022-09-13T03:16:30.690Z,31.87
2022-09-13T03:18:59.464Z,31.88
2022-09-13T03:21:25.822Z,32.15
2022-09-13T03:23:52.154Z,32.35
2022-09-13T03:26:18.586Z,32.09
2022-09-13T03:28:44.942Z,32.03
2022-09-13T03:31:11.295Z,31.96
2022-09-13T03:33:37.652Z,31.94
2022-09-13T03:36:03.971Z,31.92
2022-09-13T03:38:30.286Z,31.92
2022-09-13T03:40:56.735Z,31.90
2022-09-13T03:43:23.074Z,31.89
2022-09-13T03:45:49.454Z,31.88
2022-09-13T03:48:15.840Z,31.88
2022-09-13T03:50:42.179Z,31.86
2022-09-13T03:53:08.529Z,31.87
2022-09-13T03:55:34.904Z,31.88
2022-09-13T03:58:01.263Z,31.88
2022-09-13T04:00:27.599Z,32.18
2022-09-13T04:02:54.026Z,32.08
2022-09-13T04:05:20.355Z,31.86
2022-09-13T04:07:46.697Z,31.80
2022-09-13T04:10:13.898Z,31.75
2022-09-13T04:12:40.415Z,31.69
2022-09-13T04:15:06.745Z,31.70
2022-09-13T04:17:33.207Z,31.69
2022-09-13T04:19:59.543Z,31.67
2022-09-13T04:22:25.866Z,31.72
2022-09-13T04:24:52.297Z,31.70
2022-09-13T04:27:18.645Z,31.69
2022-09-13T04:29:44.989Z,31.62
2022-09-13T04:32:11.360Z,31.63
2022-09-13T04:34:37.704Z,31.62
2022-09-13T04:37:04.055Z,32.06
2022-09-13T04:39:30.411Z,31.76
2022-09-13T04:41:56.737Z,31.59
2022-09-13T04:44:23.082Z,31.56
2022-09-13T04:46:49.443Z,31.55
2022-09-13T04:49:15.775Z,31.51
2022-09-13T04:51:42.145Z,31.47
2022-09-13T04:54:13.141Z,31.47
2022-09-13T04:56:41.438Z,31.46
2022-09-13T04:59:07.799Z,31.45
2022-09-13T05:01:34.202Z,31.42
2022-09-13T05:04:00.549Z,31.42
2022-09-13T05:06:26.872Z,31.43
2022-09-13T05:08:53.332Z,31.39
2022-09-13T05:11:19.690Z,31.63
2022-09-13T05:13:46.010Z,31.72
2022-09-13T05:16:12.374Z,31.48
2022-09-13T05:18:42.043Z,31.41
2022-09-13T05:21:11.360Z,31.43
2022-09-13T05:23:37.734Z,31.38
2022-09-13T05:26:04.107Z,31.40
2022-09-13T05:28:30.461Z,31.34
2022-09-13T05:30:56.850Z,31.33
2022-09-13T05:33:23.216Z,31.31
2022-09-13T05:35:49.552Z,31.31
2022-09-13T05:38:15.985Z,31.30
2022-09-13T05:40:42.402Z,31.28
2022-09-13T05:43:08.785Z,31.28
2022-09-13T05:45:35.153Z,31.37
2022-09-13T05:48:01.524Z,31.86
2022-09-13T05:50:56.918Z,31.40
2022-09-13T05:53:14.366Z,31.32
2022-09-13T05:55:40.753Z,31.27
2022-09-13T05:58:07.111Z,31.18
2022-09-13T06:00:33.477Z,31.11
2022-09-13T06:02:59.849Z,31.05
2022-09-13T06:05:29.937Z,31.01
2022-09-13T06:07:58.186Z,30.99
2022-09-13T06:10:24.545Z,30.98
2022-09-13T06:12:50.903Z,30.96
2022-09-13T06:15:17.360Z,30.93
2022-09-13T06:17:43.702Z,31.17
2022-09-13T06:20:10.037Z,31.17
2022-09-13T06:22:36.476Z,30.95
2022-09-13T06:25:02.807Z,30.92
2022-09-13T06:27:29.169Z,30.85
2022-09-13T06:29:55.617Z,30.84
2022-09-13T06:32:21.977Z,30.83
2022-09-13T06:34:48.314Z,30.80
2022-09-13T06:37:14.796Z,30.77
2022-09-13T06:39:41.172Z,30.70
2022-09-13T06:42:07.599Z,30.71
2022-09-13T06:44:34.113Z,30.85
2022-09-13T06:47:00.465Z,31.03
2022-09-13T06:49:26.792Z,30.73
2022-09-13T06:51:53.163Z,30.68
2022-09-13T06:54:19.516Z,30.64
2022-09-13T06:56:45.846Z,30.65
2022-09-13T06:59:12.230Z,30.62
2022-09-13T07:01:38.703Z,30.60
2022-09-13T07:04:05.162Z,30.60
2022-09-13T07:06:31.538Z,30.59
2022-09-13T07:08:57.904Z,30.62
2022-09-13T07:11:24.297Z,30.62
2022-09-13T07:13:50.668Z,31.03
2022-09-13T07:16:17.096Z,30.86
2022-09-13T07:18:43.568Z,30.77
2022-09-13T07:21:09.945Z,30.70
2022-09-13T07:23:36.353Z,30.65
2022-09-13T07:26:02.716Z,30.66
2022-09-13T07:28:33.397Z,30.63
2022-09-13T07:31:01.545Z,30.64
2022-09-13T07:33:27.938Z,30.61
2022-09-13T07:35:54.321Z,30.63
2022-09-13T07:38:20.707Z,30.66
2022-09-13T07:40:47.055Z,30.70
2022-09-13T07:43:13.465Z,31.13
2022-09-13T07:45:39.797Z,30.75
2022-09-13T07:48:06.190Z,30.69
2022-09-13T07:50:32.727Z,30.66
2022-09-13T07:52:59.083Z,30.64
2022-09-13T07:55:25.426Z,30.62
2022-09-13T07:57:51.874Z,30.62
2022-09-13T08:00:18.267Z,30.62
2022-09-13T08:02:44.664Z,30.63
2022-09-13T08:05:11.110Z,30.66
2022-09-13T08:07:37.440Z,30.67
2022-09-13T08:10:03.773Z,30.81
2022-09-13T08:12:30.149Z,31.04
2022-09-13T08:14:56.519Z,30.78
2022-09-13T08:17:22.888Z,30.70
2022-09-13T08:19:49.278Z,30.68
2022-09-13T08:22:15.658Z,30.66
2022-09-13T08:24:42.079Z,30.64
2022-09-13T08:27:08.653Z,30.68
2022-09-13T08:29:35.101Z,30.66
2022-09-13T08:32:02.596Z,30.67
2022-09-13T08:34:29.037Z,30.68
2022-09-13T08:36:55.404Z,30.70
2022-09-13T08:39:21.811Z,30.80
2022-09-13T08:41:48.229Z,31.04
2022-09-13T08:44:14.578Z,30.79
2022-09-13T08:46:40.984Z,30.71
2022-09-13T08:49:07.435Z,30.74
2022-09-13T08:51:33.884Z,30.73
2022-09-13T08:54:00.248Z,30.73
2022-09-13T08:56:26.682Z,30.71
2022-09-13T08:58:53.116Z,30.73
2022-09-13T09:01:19.500Z,30.74
2022-09-13T09:03:46.152Z,30.77
2022-09-13T09:06:12.512Z,30.82
2022-09-13T09:08:39.158Z,30.97
2022-09-13T09:11:05.761Z,31.08
2022-09-13T09:13:32.148Z,30.85
2022-09-13T09:15:58.611Z,30.84
2022-09-13T09:18:25.169Z,30.84
2022-09-13T09:20:52.701Z,30.83
2022-09-13T09:23:21.316Z,30.82
2022-09-13T09:25:48.133Z,30.84
2022-09-13T09:28:14.527Z,30.87
2022-09-13T09:30:40.948Z,30.89
2022-09-13T09:33:07.501Z,30.91
2022-09-13T09:35:33.890Z,30.92
2022-09-13T09:38:00.437Z,31.13
2022-09-13T09:40:31.536Z,31.07
2022-09-13T09:42:58.097Z,30.98
2022-09-13T09:45:24.489Z,30.96
2022-09-13T09:47:50.882Z,30.93
2022-09-13T09:50:17.271Z,30.96
2022-09-13T09:52:43.666Z,30.98
2022-09-13T09:55:10.020Z,31.00
2022-09-13T09:57:36.373Z,31.05
2022-09-13T10:00:02.719Z,31.09
2022-09-13T10:02:29.293Z,31.11
2022-09-13T10:04:55.721Z,31.08
2022-09-13T10:07:22.121Z,31.29
2022-09-13T10:09:48.585Z,31.32
2022-09-13T10:12:14.923Z,31.16
2022-09-13T10:14:41.270Z,31.09
2022-09-13T10:17:07.681Z,31.11
2022-09-13T10:19:34.017Z,31.06
2022-09-13T10:22:00.378Z,31.12
2022-09-13T10:24:26.793Z,31.15
2022-09-13T10:26:53.159Z,31.12
2022-09-13T10:29:19.512Z,31.10
2022-09-13T10:31:46.002Z,31.14
2022-09-13T10:34:12.414Z,31.16
2022-09-13T10:36:52.280Z,31.41
2022-09-13T10:39:19.593Z,31.30
2022-09-13T10:41:46.052Z,31.19
2022-09-13T10:44:12.402Z,31.18
2022-09-13T10:46:38.888Z,31.20
2022-09-13T10:49:05.262Z,31.25
2022-09-13T10:51:31.636Z,31.26
2022-09-13T10:53:58.060Z,31.27
2022-09-13T10:56:24.402Z,31.24
2022-09-13T10:58:50.785Z,31.27
2022-09-13T11:01:17.219Z,31.28
2022-09-13T11:03:43.789Z,31.30
2022-09-13T11:06:10.226Z,31.51
2022-09-13T11:08:36.613Z,31.46
2022-09-13T11:11:02.969Z,31.32
2022-09-13T11:13:29.382Z,31.31
2022-09-13T11:15:55.745Z,31.29
2022-09-13T11:18:22.110Z,31.26
2022-09-13T11:20:48.477Z,31.28
2022-09-13T11:23:14.897Z,31.29
2022-09-13T11:25:41.236Z,31.27
2022-09-13T11:28:07.571Z,31.28
2022-09-13T11:30:33.941Z,31.31
2022-09-13T11:33:00.294Z,31.29
2022-09-13T11:35:26.658Z,31.47
2022-09-13T11:37:53.029Z,31.51
2022-09-13T11:40:19.400Z,31.37
2022-09-13T11:42:45.774Z,31.36
2022-09-13T11:45:12.211Z,31.36
2022-09-13T11:47:38.545Z,31.32
2022-09-13T11:50:04.921Z,31.35
2022-09-13T11:52:31.297Z,31.36
2022-09-13T11:54:57.850Z,31.35
2022-09-13T11:57:24.216Z,31.36
2022-09-13T11:59:50.586Z,31.36
2022-09-13T12:02:17.071Z,31.39
2022-09-13T12:04:43.562Z,31.47
2022-09-13T12:07:09.953Z,31.70
2022-09-13T12:09:36.283Z,31.44
2022-09-13T12:12:02.611Z,31.38
2022-09-13T12:14:28.982Z,31.35
2022-09-13T12:16:55.396Z,31.38
2022-09-13T12:19:21.758Z,31.39
2022-09-13T12:21:48.234Z,31.37
2022-09-13T12:24:14.593Z,31.36
2022-09-13T12:26:40.923Z,31.38
2022-09-13T12:29:07.306Z,31.42
2022-09-13T12:31:33.716Z,31.45
2022-09-13T12:34:00.223Z,31.48
2022-09-13T12:36:26.602Z,31.82
2022-09-13T12:38:52.946Z,31.52
2022-09-13T12:41:19.272Z,31.45
2022-09-13T12:43:45.680Z,31.43
2022-09-13T12:46:12.081Z,31.41
2022-09-13T12:48:38.488Z,31.41
2022-09-13T12:51:04.879Z,31.40
2022-09-13T12:53:31.224Z,31.41
2022-09-13T12:55:57.576Z,31.39
2022-09-13T12:58:23.944Z,31.40
2022-09-13T13:00:50.301Z,31.43
2022-09-13T13:03:16.672Z,31.44
2022-09-13T13:05:43.038Z,31.77
2022-09-13T13:08:09.376Z,31.55
2022-09-13T13:10:35.707Z,31.45
2022-09-13T13:13:02.088Z,31.29
2022-09-13T13:15:28.474Z,31.37
2022-09-13T13:17:54.861Z,31.41
2022-09-13T13:20:21.249Z,31.45
2022-09-13T13:22:47.581Z,31.46
2022-09-13T13:25:13.915Z,31.48
2022-09-13T13:27:43.794Z,31.46
2022-09-13T13:30:13.977Z,31.46
2022-09-13T13:32:40.350Z,31.46
2022-09-13T13:35:06.699Z,31.65
2022-09-13T13:37:33.050Z,31.66
2022-09-13T13:39:59.556Z,31.51
2022-09-13T13:42:25.953Z,31.49
2022-09-13T13:44:52.300Z,31.50
2022-09-13T13:47:18.767Z,31.47
2022-09-13T13:49:45.099Z,31.49
2022-09-13T13:52:11.474Z,31.51
2022-09-13T13:54:37.958Z,31.51
2022-09-13T13:57:05.629Z,31.51
2022-09-13T13:59:33.748Z,31.50
2022-09-13T14:02:00.307Z,31.55
2022-09-13T14:04:26.711Z,31.56
2022-09-13T14:06:53.223Z,31.88
2022-09-13T14:09:19.573Z,31.65
2022-09-13T14:11:45.926Z,31.55
2022-09-13T14:14:12.297Z,31.54
2022-09-13T14:16:38.765Z,31.49
2022-09-13T14:19:08.242Z,31.53
2022-09-13T14:21:34.629Z,31.54
2022-09-13T14:24:01.018Z,31.53
2022-09-13T14:26:27.404Z,31.54
2022-09-13T14:28:54.177Z,31.54
2022-09-13T14:31:20.663Z,31.52
2022-09-13T14:33:47.061Z,31.55
2022-09-13T14:36:13.403Z,31.54
2022-09-13T14:38:39.758Z,31.91
2022-09-13T14:41:06.091Z,31.63
2022-09-13T14:43:32.425Z,31.55
2022-09-13T14:45:58.776Z,31.54
2022-09-13T14:48:25.139Z,31.53
2022-09-13T14:50:51.507Z,31.53
2022-09-13T14:53:17.858Z,31.54
2022-09-13T14:55:44.189Z,31.51
2022-09-13T14:58:10.536Z,31.50
2022-09-13T15:00:36.945Z,31.51
2022-09-13T15:03:03.391Z,31.52
2022-09-13T15:05:29.883Z,31.53
2022-09-13T15:07:56.257Z,31.54
2022-09-13T15:10:22.602Z,31.77
2022-09-13T15:12:48.956Z,31.71
2022-09-13T15:15:15.403Z,31.56
2022-09-13T15:17:41.752Z,31.55
2022-09-13T15:20:08.094Z,31.53
2022-09-13T15:22:34.465Z,31.54
2022-09-13T15:25:00.822Z,31.49
2022-09-13T15:27:27.182Z,31.48
2022-09-13T15:29:53.616Z,31.49
2022-09-13T15:32:19.954Z,31.46
2022-09-13T15:34:46.305Z,31.46
2022-09-13T15:37:12.750Z,31.53
2022-09-13T15:39:39.094Z,31.53
2022-09-13T15:42:05.435Z,31.50
2022-09-13T15:44:31.852Z,31.76
2022-09-13T15:46:58.248Z,31.68
2022-09-13T15:49:24.624Z,31.51
2022-09-13T15:51:51.023Z,31.52
2022-09-13T15:54:17.363Z,31.53
2022-09-13T15:56:43.765Z,31.50
2022-09-13T15:59:10.190Z,31.48
2022-09-13T16:01:36.569Z,31.51
2022-09-13T16:04:02.968Z,31.49
2022-09-13T16:06:29.355Z,31.51
2022-09-13T16:08:55.760Z,31.50
2022-09-13T16:11:22.117Z,31.54
2022-09-13T16:13:48.671Z,31.50
2022-09-13T16:16:15.129Z,31.53
2022-09-13T16:18:41.564Z,31.87
2022-09-13T16:21:08.023Z,31.61
2022-09-13T16:23:34.362Z,31.53
2022-09-13T16:26:00.729Z,31.49
2022-09-13T16:28:27.212Z,31.50
2022-09-13T16:30:53.566Z,31.54
2022-09-13T16:33:19.909Z,31.56
2022-09-13T16:35:46.291Z,31.56
2022-09-13T16:38:12.628Z,31.58
2022-09-13T16:40:39.031Z,31.58
2022-09-13T16:43:05.409Z,31.57
2022-09-13T16:45:31.758Z,31.61
2022-09-13T16:47:58.142Z,31.62
2022-09-13T16:50:24.583Z,31.62
2022-09-13T16:52:50.926Z,31.84
2022-09-13T16:55:17.279Z,32.02
2022-09-13T16:57:43.652Z,31.70
2022-09-13T17:00:09.986Z,31.70
2022-09-13T17:02:36.383Z,31.70
2022-09-13T17:05:02.932Z,31.66
2022-09-13T17:07:29.284Z,31.67
2022-09-13T17:09:55.616Z,31.67
2022-09-13T17:12:21.979Z,31.66
2022-09-13T17:14:48.347Z,31.65
2022-09-13T17:17:14.741Z,31.65
2022-09-13T17:19:41.098Z,31.64
2022-09-13T17:22:07.444Z,31.67
2022-09-13T17:24:33.834Z,31.65
2022-09-13T17:27:00.275Z,31.67
2022-09-13T17:29:26.640Z,31.66
2022-09-13T17:31:53.032Z,32.05
2022-09-13T17:34:19.443Z,31.84
2022-09-13T17:36:49.277Z,31.67
2022-09-13T17:39:17.525Z,31.65
2022-09-13T17:41:43.891Z,31.63
2022-09-13T17:44:10.291Z,31.60
2022-09-13T17:46:36.681Z,31.61
2022-09-13T17:49:03.671Z,31.61
2022-09-13T17:51:30.036Z,31.60
2022-09-13T17:53:56.381Z,31.61
2022-09-13T17:56:22.794Z,31.61
2022-09-13T17:58:49.178Z,31.63
2022-09-13T18:01:15.622Z,31.66
2022-09-13T18:03:42.193Z,31.67
2022-09-13T18:06:08.574Z,31.71
2022-09-13T18:08:34.936Z,31.78
2022-09-13T18:11:12.755Z,32.30
2022-09-13T18:13:40.245Z,31.94
2022-09-13T18:16:06.650Z,31.86
2022-09-13T18:18:33.084Z,31.88
2022-09-13T18:20:59.458Z,31.84
2022-09-13T18:23:25.829Z,31.85
2022-09-13T18:25:52.205Z,31.85
2022-09-13T18:28:18.548Z,31.85
2022-09-13T18:30:44.959Z,31.87
2022-09-13T18:33:11.640Z,31.87
2022-09-13T18:35:38.052Z,31.90
2022-09-13T18:38:04.427Z,31.89
2022-09-13T18:40:30.866Z,31.89
2022-09-13T18:42:57.262Z,31.90
2022-09-13T18:45:23.647Z,31.91
2022-09-13T18:47:49.982Z,31.92
2022-09-13T18:50:19.814Z,32.31
2022-09-13T18:52:46.506Z,32.21
2022-09-13T18:55:12.930Z,32.00
2022-09-13T18:57:39.283Z,31.97
2022-09-13T19:00:05.681Z,31.97
2022-09-13T19:02:32.120Z,31.96
2022-09-13T19:04:58.537Z,31.95
2022-09-13T19:07:24.912Z,31.95
2022-09-13T19:09:51.280Z,31.97
2022-09-13T19:12:17.647Z,31.96
2022-09-13T19:14:44.022Z,31.99
2022-09-13T19:17:10.366Z,31.99
2022-09-13T19:19:36.693Z,32.00
2022-09-13T19:22:03.178Z,31.98
2022-09-13T19:24:29.528Z,31.99
2022-09-13T19:26:55.873Z,32.00
2022-09-13T19:29:22.233Z,32.11
2022-09-13T19:31:48.617Z,32.61
2022-09-13T19:34:14.960Z,32.17
2022-09-13T19:36:41.338Z,32.10
2022-09-13T19:39:14.042Z,32.08
2022-09-13T19:41:40.404Z,32.08
2022-09-13T19:44:06.806Z,32.07
2022-09-13T19:46:33.213Z,32.07
2022-09-13T19:48:59.585Z,32.08
2022-09-13T19:51:25.988Z,32.06
2022-09-13T19:53:59.248Z,32.07
2022-09-13T19:56:25.596Z,32.09
2022-09-13T19:58:54.294Z,32.08
2022-09-13T20:01:20.699Z,32.06
2022-09-13T20:03:47.107Z,32.07
2022-09-13T20:06:13.467Z,32.11
2022-09-13T20:08:39.794Z,32.10
2022-09-13T20:11:06.139Z,32.47
2022-09-13T20:13:32.499Z,32.39
2022-09-13T20:15:58.891Z,32.16
2022-09-13T20:18:25.281Z,32.15
2022-09-13T20:20:51.755Z,32.13
2022-09-13T20:23:18.099Z,32.10
2022-09-13T20:25:44.431Z,32.10
2022-09-13T20:28:10.901Z,32.11
2022-09-13T20:30:37.279Z,32.10
2022-09-13T20:33:03.703Z,32.11
2022-09-13T20:35:30.067Z,32.13
2022-09-13T20:37:56.424Z,32.10
2022-09-13T20:40:22.779Z,32.18
2022-09-13T20:42:49.209Z,32.15
2022-09-13T20:45:15.561Z,32.14
2022-09-13T20:47:41.913Z,32.18
2022-09-13T20:50:08.402Z,32.16
2022-09-13T20:52:34.759Z,32.62
2022-09-13T20:55:01.104Z,32.40
2022-09-13T20:57:27.488Z,32.20
2022-09-13T20:59:53.848Z,32.19
2022-09-13T21:02:20.217Z,32.19
2022-09-13T21:04:46.625Z,32.20
2022-09-13T21:07:14.895Z,32.17
2022-09-13T21:09:41.394Z,32.18
2022-09-13T21:12:07.763Z,32.16
2022-09-13T21:14:34.111Z,32.19
2022-09-13T21:17:00.497Z,32.18
2022-09-13T21:19:27.010Z,32.16
2022-09-13T21:21:53.376Z,32.18
2022-09-13T21:24:19.749Z,32.15
2022-09-13T21:26:46.117Z,32.17
2022-09-13T21:29:12.493Z,32.20
2022-09-13T21:31:38.825Z,32.17
2022-09-13T21:34:05.196Z,32.66
2022-09-13T21:36:32.818Z,32.38
2022-09-13T21:38:59.189Z,32.24
2022-09-13T21:41:25.569Z,32.22
2022-09-13T21:43:51.906Z,32.19
2022-09-13T21:46:18.304Z,32.16
2022-09-13T21:48:44.849Z,32.17
2022-09-13T21:51:11.214Z,32.21
2022-09-13T21:53:37.554Z,32.15
2022-09-13T21:56:03.904Z,32.20
2022-09-13T21:58:30.265Z,32.18
2022-09-13T22:00:56.709Z,32.18
2022-09-13T22:03:23.119Z,32.18
2022-09-13T22:05:49.471Z,32.18
2022-09-13T22:08:15.838Z,32.19
2022-09-13T22:10:42.321Z,32.20
2022-09-13T22:13:08.647Z,32.37
2022-09-13T22:15:34.995Z,32.76
2022-09-13T22:18:01.351Z,32.29
2022-09-13T22:20:27.696Z,32.23
2022-09-13T22:22:54.046Z,32.22
2022-09-13T22:25:20.498Z,32.19
2022-09-13T22:27:46.856Z,32.18
2022-09-13T22:30:13.216Z,32.20
2022-09-13T22:32:39.663Z,32.19
2022-09-13T22:35:05.994Z,32.19
2022-09-13T22:37:32.343Z,32.18
2022-09-13T22:39:58.759Z,32.19
2022-09-13T22:42:25.164Z,32.19
2022-09-13T22:44:51.566Z,32.20
2022-09-13T22:47:17.950Z,32.22
2022-09-13T22:49:44.293Z,32.20
2022-09-13T22:52:10.637Z,32.22
2022-09-13T22:54:37.006Z,32.45
2022-09-13T22:57:03.345Z,32.65
2022-09-13T22:59:29.699Z,32.32
2022-09-13T23:01:56.074Z,32.27
2022-09-13T23:04:22.412Z,32.22
2022-09-13T23:06:48.758Z,32.24
2022-09-13T23:09:15.126Z,32.23
2022-09-13T23:11:41.470Z,32.23
2022-09-13T23:14:07.877Z,32.22
2022-09-13T23:16:34.314Z,32.21
2022-09-13T23:19:00.711Z,32.17
2022-09-13T23:21:27.064Z,32.19
2022-09-13T23:23:53.450Z,32.19
2022-09-13T23:26:19.790Z,32.19
2022-09-13T23:28:46.140Z,32.21
2022-09-13T23:31:13.571Z,32.20
2022-09-13T23:33:39.835Z,32.22
2022-09-13T23:36:06.130Z,32.33
2022-09-13T23:38:32.434Z,32.80
2022-09-13T23:40:58.701Z,32.34
2022-09-13T23:43:24.992Z,32.27
2022-09-13T23:45:51.460Z,32.23
2022-09-13T23:48:17.780Z,32.25
2022-09-13T23:50:44.048Z,32.23
2022-09-13T23:53:10.455Z,32.25
2022-09-13T23:55:36.725Z,32.26
2022-09-13T23:58:02.991Z,32.25
